Time;durP1;ratioP1;P1;durP2;ratioP2;P2;SDS_P1;SDS_P2;PMS_P1;PMS_P2;Temp;Humidity;BMP_temperature;BMP_pressure;BME280_temperature;BME280_humidity;BME280_pressure;Samples;Min_cycle;Max_cycle;Signal;HPM_P1;HPM_P2
2022/01/29 00:01:32;;;;;;;10.85;4.35;;;;;;;;;;5107786;28;20509;-60
2022/01/29 00:03:58;;;;;;;12.98;5.30;;;;;;;;;;5107718;28;20130;-61
2022/01/29 00:06:24;;;;;;;12.10;4.25;;;;;;;;;;5109163;28;20071;-60
2022/01/29 00:08:52;;;;;;;9.93;4.07;;;;;;;;;;5108470;28;20039;-60
2022/01/29 00:11:18;;;;;;;9.68;3.70;;;;;;;;;;5110197;28;20123;-60
2022/01/29 00:13:44;;;;;;;9.50;3.92;;;;;;;;;;5109185;28;20044;-60
2022/01/29 00:16:10;;;;;;;10.98;3.92;;;;;;;;;;5107066;28;20047;-60
2022/01/29 00:18:37;;;;;;;10.43;3.95;;;;;;;;;;5108312;28;20100;-60
2022/01/29 00:21:03;;;;;;;12.10;4.40;;;;;;;;;;5091058;28;20201;-61
2022/01/29 00:23:29;;;;;;;12.27;3.65;;;;;;;;;;5109838;28;20032;-61
2022/01/29 00:25:55;;;;;;;11.00;4.32;;;;;;;;;;5109287;28;20051;-61
2022/01/29 00:28:21;;;;;;;11.30;4.55;;;;;;;;;;5108070;28;20395;-60
2022/01/29 00:30:47;;;;;;;10.35;3.90;;;;;;;;;;5091523;28;20130;-60
2022/01/29 00:33:15;;;;;;;10.70;3.70;;;;;;;;;;5109873;28;20040;-61
2022/01/29 00:35:41;;;;;;;11.00;4.47;;;;;;;;;;5110045;28;20166;-61
2022/01/29 00:38:07;;;;;;;11.18;3.92;;;;;;;;;;5108449;28;20070;-60
2022/01/29 00:40:36;;;;;;;10.80;3.92;;;;;;;;;;5109041;28;20039;-60
2022/01/29 00:43:02;;;;;;;10.07;4.03;;;;;;;;;;5114059;28;20051;-60
2022/01/29 00:45:28;;;;;;;10.52;3.63;;;;;;;;;;5114102;28;20036;-60
2022/01/29 00:47:54;;;;;;;13.05;4.07;;;;;;;;;;5114226;28;20116;-60
2022/01/29 00:50:20;;;;;;;10.90;3.78;;;;;;;;;;5114093;28;20367;-60
2022/01/29 00:52:47;;;;;;;10.20;4.00;;;;;;;;;;5113683;28;20043;-60
2022/01/29 00:55:13;;;;;;;10.77;3.70;;;;;;;;;;5112807;28;20457;-61
2022/01/29 00:57:40;;;;;;;10.70;3.78;;;;;;;;;;5113429;28;20134;-60
2022/01/29 01:00:07;;;;;;;10.23;4.13;;;;;;;;;;5112568;28;20043;-60
2022/01/29 01:02:33;;;;;;;11.00;3.83;;;;;;;;;;5078257;28;20052;-61
2022/01/29 01:04:59;;;;;;;10.13;3.78;;;;;;;;;;5113687;28;20046;-61
2022/01/29 01:07:25;;;;;;;8.07;3.72;;;;;;;;;;5113114;28;20042;-61
2022/01/29 01:09:51;;;;;;;9.60;3.10;;;;;;;;;;5113993;28;20576;-61
2022/01/29 01:12:17;;;;;;;11.32;3.78;;;;;;;;;;5113579;28;20597;-60
2022/01/29 01:14:43;;;;;;;9.65;4.13;;;;;;;;;;5113342;28;20114;-60
2022/01/29 01:17:09;;;;;;;10.98;4.18;;;;;;;;;;5113584;28;20150;-61
2022/01/29 01:19:35;;;;;;;9.32;3.47;;;;;;;;;;5113655;28;20058;-60
2022/01/29 01:22:01;;;;;;;9.85;4.18;;;;;;;;;;5111424;28;20135;-60
2022/01/29 01:24:27;;;;;;;9.15;3.72;;;;;;;;;;5113457;28;20039;-60
2022/01/29 01:26:53;;;;;;;10.85;4.30;;;;;;;;;;5112946;28;20120;-61
2022/01/29 01:29:19;;;;;;;10.50;3.67;;;;;;;;;;5113468;28;20035;-60
2022/01/29 01:31:46;;;;;;;10.35;4.20;;;;;;;;;;5112031;28;20922;-60
2022/01/29 01:34:16;;;;;;;8.98;3.42;;;;;;;;;;5113417;28;20074;-60
2022/01/29 01:36:48;;;;;;;11.63;4.30;;;;;;;;;;5113004;28;20039;-61
2022/01/29 01:39:18;;;;;;;10.95;4.03;;;;;;;;;;5112896;28;20036;-60
2022/01/29 01:41:54;;;;;;;10.70;4.25;;;;;;;;;;5112901;28;20484;-60
2022/01/29 01:44:20;;;;;;;10.57;4.10;;;;;;;;;;5113139;28;20031;-60
2022/01/29 01:46:46;;;;;;;10.30;4.43;;;;;;;;;;5111556;28;20044;-60
2022/01/29 01:49:12;;;;;;;8.75;4.00;;;;;;;;;;5112999;28;20047;-60
2022/01/29 01:51:38;;;;;;;10.10;3.60;;;;;;;;;;5112646;28;20542;-60
2022/01/29 01:54:04;;;;;;;10.10;4.00;;;;;;;;;;5111036;28;20118;-61
2022/01/29 01:56:30;;;;;;;10.52;4.35;;;;;;;;;;5112552;28;20078;-61
2022/01/29 01:58:57;;;;;;;10.90;4.40;;;;;;;;;;5111573;28;20289;-61
2022/01/29 02:01:23;;;;;;;10.25;3.72;;;;;;;;;;5112897;28;20582;-61
2022/01/29 02:03:49;;;;;;;10.77;4.07;;;;;;;;;;5112139;28;20048;-60
2022/01/29 02:06:15;;;;;;;11.43;4.38;;;;;;;;;;5110448;28;20043;-60
2022/01/29 02:08:41;;;;;;;10.18;4.10;;;;;;;;;;5111482;28;20388;-60
2022/01/29 02:11:09;;;;;;;13.65;4.82;;;;;;;;;;5110673;28;20134;-60
2022/01/29 02:13:35;;;;;;;11.60;4.65;;;;;;;;;;5111310;28;20119;-61
2022/01/29 02:16:05;;;;;;;12.00;4.03;;;;;;;;;;5111736;28;20454;-61
2022/01/29 02:18:31;;;;;;;10.05;4.15;;;;;;;;;;5112293;28;20403;-61
2022/01/29 02:20:58;;;;;;;13.98;5.38;;;;;;;;;;5109424;28;20313;-61
2022/01/29 02:23:24;;;;;;;13.80;5.28;;;;;;;;;;5110892;28;20526;-61
2022/01/29 02:25:50;;;;;;;12.75;4.68;;;;;;;;;;5111356;28;20063;-61
2022/01/29 02:28:20;;;;;;;12.55;4.90;;;;;;;;;;5112188;28;20039;-61
2022/01/29 02:30:47;;;;;;;9.88;4.22;;;;;;;;;;5110680;28;20120;-60
2022/01/29 02:33:14;;;;;;;13.43;4.13;;;;;;;;;;5111985;28;20054;-61
2022/01/29 02:35:41;;;;;;;12.95;5.13;;;;;;;;;;5111629;28;20046;-60
2022/01/29 02:38:07;;;;;;;11.20;3.97;;;;;;;;;;5110295;28;20422;-61
2022/01/29 02:40:36;;;;;;;13.48;5.03;;;;;;;;;;5111839;28;20411;-61
2022/01/29 02:43:46;;;;;;;11.68;4.22;;;;;;;;;;5089591;28;20048;-61
2022/01/29 02:48:44;;;;;;;12.73;4.82;;;;;;;;;;5048397;28;20135;-61
2022/01/29 02:51:10;;;;;;;12.85;5.00;;;;;;;;;;5031748;28;20044;-61
2022/01/29 02:53:36;;;;;;;12.00;4.03;;;;;;;;;;5048812;28;20092;-61
2022/01/29 02:56:02;;;;;;;10.80;3.97;;;;;;;;;;5031947;28;20531;-60
2022/01/29 02:58:28;;;;;;;14.90;5.18;;;;;;;;;;5048312;28;20404;-61
2022/01/29 03:00:54;;;;;;;10.70;4.57;;;;;;;;;;5049042;28;20124;-61
2022/01/29 03:03:20;;;;;;;11.18;4.30;;;;;;;;;;5030687;28;20455;-61
2022/01/29 03:05:46;;;;;;;12.55;4.40;;;;;;;;;;5048497;28;20056;-60
2022/01/29 03:08:12;;;;;;;10.40;4.38;;;;;;;;;;5031468;28;20041;-60
2022/01/29 03:10:38;;;;;;;10.80;4.50;;;;;;;;;;5048742;28;20037;-61
2022/01/29 03:13:05;;;;;;;11.82;4.85;;;;;;;;;;5048033;28;20064;-61
2022/01/29 03:15:31;;;;;;;15.63;5.40;;;;;;;;;;5048635;28;20055;-61
2022/01/29 03:17:57;;;;;;;12.45;4.38;;;;;;;;;;5048047;28;20045;-61
2022/01/29 03:20:23;;;;;;;11.73;4.68;;;;;;;;;;5047359;28;20095;-61
2022/01/29 03:22:49;;;;;;;11.43;4.32;;;;;;;;;;5109110;28;20044;-60
2022/01/29 03:25:16;;;;;;;10.82;4.57;;;;;;;;;;5109067;28;20069;-61
2022/01/29 03:27:42;;;;;;;9.07;4.10;;;;;;;;;;5111219;27;20047;-61
2022/01/29 03:30:08;;;;;;;12.77;5.10;;;;;;;;;;5109843;28;20045;-61
2022/01/29 03:32:34;;;;;;;10.95;4.07;;;;;;;;;;5111281;28;20118;-61
2022/01/29 03:35:00;;;;;;;9.85;4.05;;;;;;;;;;5109415;28;20042;-60
2022/01/29 03:37:26;;;;;;;9.90;4.30;;;;;;;;;;5110688;28;20039;-61
2022/01/29 03:39:57;;;;;;;11.02;4.13;;;;;;;;;;5092550;28;20114;-61
2022/01/29 03:42:24;;;;;;;12.27;4.78;;;;;;;;;;5110804;28;20075;-61
2022/01/29 03:44:50;;;;;;;11.05;3.70;;;;;;;;;;5091999;28;20092;-61
2022/01/29 03:47:16;;;;;;;12.18;4.35;;;;;;;;;;5110474;28;20123;-61
2022/01/29 03:49:42;;;;;;;9.32;3.95;;;;;;;;;;5110795;28;20071;-61
2022/01/29 03:52:08;;;;;;;9.98;3.88;;;;;;;;;;5074438;28;20040;-61
2022/01/29 03:54:34;;;;;;;11.25;4.70;;;;;;;;;;5110301;28;20164;-61
2022/01/29 03:57:00;;;;;;;10.45;3.95;;;;;;;;;;5108361;28;20117;-61
2022/01/29 03:59:26;;;;;;;9.82;3.90;;;;;;;;;;5110143;28;20035;-61
2022/01/29 04:01:52;;;;;;;11.32;4.10;;;;;;;;;;5110279;28;20137;-61
2022/01/29 04:04:18;;;;;;;10.35;4.68;;;;;;;;;;5066374;28;20472;-61
2022/01/29 04:06:44;;;;;;;9.32;4.65;;;;;;;;;;5067266;28;20044;-61
2022/01/29 04:09:11;;;;;;;12.70;4.68;;;;;;;;;;5068212;28;20045;-61
2022/01/29 04:11:38;;;;;;;11.38;4.40;;;;;;;;;;5066855;28;20056;-62
2022/01/29 04:14:13;;;;;;;10.20;4.25;;;;;;;;;;5069727;28;20044;-61
2022/01/29 04:16:39;;;;;;;9.75;4.03;;;;;;;;;;5066848;28;20037;-61
2022/01/29 04:19:05;;;;;;;11.05;4.07;;;;;;;;;;5052040;28;20066;-61
2022/01/29 04:21:31;;;;;;;9.90;4.18;;;;;;;;;;5068804;28;20063;-61
2022/01/29 04:23:57;;;;;;;11.82;4.55;;;;;;;;;;5070256;28;20468;-61
2022/01/29 04:26:23;;;;;;;11.43;4.45;;;;;;;;;;5066068;28;20040;-61
2022/01/29 04:28:51;;;;;;;9.82;3.90;;;;;;;;;;5068460;28;20037;-61
2022/01/29 04:31:19;;;;;;;10.80;3.85;;;;;;;;;;5068062;28;20082;-61
2022/01/29 04:33:46;;;;;;;9.45;3.95;;;;;;;;;;5064716;28;20102;-61
2022/01/29 04:36:12;;;;;;;9.73;4.10;;;;;;;;;;5049810;28;20036;-61
2022/01/29 04:38:38;;;;;;;11.50;4.30;;;;;;;;;;5068130;28;20447;-61
2022/01/29 04:41:04;;;;;;;11.25;3.85;;;;;;;;;;5069274;28;20040;-61
2022/01/29 04:43:34;;;;;;;8.35;3.67;;;;;;;;;;5056089;28;20120;-61
2022/01/29 04:46:00;;;;;;;10.20;3.72;;;;;;;;;;5049517;28;20040;-61
2022/01/29 04:48:26;;;;;;;10.25;4.28;;;;;;;;;;5050728;28;20094;-61
2022/01/29 04:50:52;;;;;;;11.07;4.63;;;;;;;;;;5049332;28;20573;-61
2022/01/29 04:53:18;;;;;;;11.23;3.80;;;;;;;;;;5049237;28;20049;-62
2022/01/29 04:55:44;;;;;;;11.45;4.80;;;;;;;;;;5059474;28;20094;-61
2022/01/29 04:58:11;;;;;;;11.32;4.10;;;;;;;;;;5068307;28;20040;-61
2022/01/29 05:00:37;;;;;;;10.68;3.97;;;;;;;;;;5068774;28;20048;-62
2022/01/29 05:03:07;;;;;;;10.93;4.40;;;;;;;;;;5088392;28;20047;-62
2022/01/29 05:05:33;;;;;;;10.52;5.15;;;;;;;;;;5089413;28;20040;-62
2022/01/29 05:07:59;;;;;;;9.27;3.53;;;;;;;;;;5087615;28;20040;-62
2022/01/29 05:10:25;;;;;;;10.95;4.68;;;;;;;;;;5109352;28;20093;-61
2022/01/29 05:12:59;;;;;;;10.43;4.50;;;;;;;;;;5109625;28;20051;-61
2022/01/29 05:28:50;;;;;;;10.73;3.55;;;;;;;;;;5113849;28;20152;-62
2022/01/29 05:31:16;;;;;;;8.00;3.47;;;;;;;;;;5113020;28;20047;-62
2022/01/29 05:33:42;;;;;;;10.32;3.45;;;;;;;;;;5113897;28;20043;-61
2022/01/29 05:36:08;;;;;;;10.68;3.95;;;;;;;;;;5111720;28;20055;-61
2022/01/29 05:38:34;;;;;;;9.95;3.72;;;;;;;;;;5113586;28;20165;-62
2022/01/29 05:41:00;;;;;;;7.13;3.53;;;;;;;;;;5112276;28;20035;-62
2022/01/29 05:43:27;;;;;;;10.10;3.85;;;;;;;;;;5112094;28;20495;-61
2022/01/29 05:45:53;;;;;;;9.20;3.58;;;;;;;;;;5111393;28;20114;-61
2022/01/29 05:48:19;;;;;;;7.63;3.42;;;;;;;;;;5113034;28;20494;-61
2022/01/29 05:50:45;;;;;;;7.63;3.13;;;;;;;;;;5112525;28;20043;-62
2022/01/29 05:53:11;;;;;;;10.38;4.05;;;;;;;;;;5112427;28;20410;-61
2022/01/29 05:55:37;;;;;;;8.23;4.03;;;;;;;;;;5112893;28;20550;-62
2022/01/29 05:58:03;;;;;;;8.93;4.28;;;;;;;;;;5113128;28;20040;-61
2022/01/29 06:00:29;;;;;;;8.95;4.07;;;;;;;;;;5110979;28;20114;-61
2022/01/29 06:03:06;;;;;;;9.77;4.25;;;;;;;;;;5112148;28;20138;-62
2022/01/29 06:05:32;;;;;;;8.90;4.57;;;;;;;;;;5111517;28;20051;-61
2022/01/29 06:07:58;;;;;;;10.60;3.90;;;;;;;;;;5110069;28;20043;-61
2022/01/29 06:10:24;;;;;;;10.98;4.38;;;;;;;;;;5110806;28;20038;-62
2022/01/29 06:13:04;;;;;;;9.60;4.70;;;;;;;;;;5112676;28;20044;-61
2022/01/29 06:15:30;;;;;;;9.68;4.30;;;;;;;;;;5112368;28;20032;-61
2022/01/29 06:17:56;;;;;;;8.27;3.53;;;;;;;;;;5111021;28;20075;-61
2022/01/29 06:20:22;;;;;;;8.50;4.38;;;;;;;;;;5112073;28;20531;-61
2022/01/29 06:22:48;;;;;;;8.75;3.97;;;;;;;;;;5109777;28;20092;-61
2022/01/29 06:25:14;;;;;;;9.15;4.15;;;;;;;;;;5110556;28;20131;-61
2022/01/29 06:27:40;;;;;;;7.93;3.30;;;;;;;;;;5109819;28;20598;-61
2022/01/29 06:30:09;;;;;;;9.75;4.05;;;;;;;;;;5111673;28;20044;-61
2022/01/29 06:32:35;;;;;;;9.20;3.63;;;;;;;;;;5103246;28;20120;-61
2022/01/29 06:35:01;;;;;;;9.55;3.72;;;;;;;;;;5112451;28;20122;-61
2022/01/29 06:37:27;;;;;;;9.48;3.88;;;;;;;;;;5109848;28;20066;-61
2022/01/29 06:39:53;;;;;;;9.13;3.42;;;;;;;;;;5110151;28;20122;-61
2022/01/29 06:42:19;;;;;;;8.85;3.45;;;;;;;;;;5111709;28;20118;-61
2022/01/29 06:44:45;;;;;;;7.80;3.60;;;;;;;;;;5112350;28;20123;-61
2022/01/29 06:47:11;;;;;;;7.40;3.35;;;;;;;;;;5111189;28;20104;-62
2022/01/29 06:49:37;;;;;;;9.32;3.40;;;;;;;;;;5112107;28;20032;-61
2022/01/29 06:52:03;;;;;;;10.75;3.72;;;;;;;;;;5110039;28;20078;-61
2022/01/29 06:54:29;;;;;;;9.10;3.85;;;;;;;;;;5111663;28;20036;-62
2022/01/29 06:56:55;;;;;;;8.70;3.58;;;;;;;;;;5110224;28;20043;-61
2022/01/29 06:59:21;;;;;;;9.35;3.58;;;;;;;;;;5111965;28;20042;-61
2022/01/29 07:01:47;;;;;;;8.57;3.25;;;;;;;;;;5093255;28;20047;-62
2022/01/29 07:04:13;;;;;;;9.02;3.65;;;;;;;;;;5111239;28;20146;-61
2022/01/29 07:06:39;;;;;;;8.38;3.45;;;;;;;;;;5111372;28;20068;-61
2022/01/29 07:09:05;;;;;;;7.97;3.45;;;;;;;;;;5109768;28;20076;-61
2022/01/29 07:11:31;;;;;;;9.60;3.88;;;;;;;;;;5111343;28;20061;-61
2022/01/29 07:14:02;;;;;;;8.93;4.20;;;;;;;;;;5092613;28;20044;-61
2022/01/29 07:16:29;;;;;;;9.85;3.47;;;;;;;;;;5110304;28;20077;-62
2022/01/29 07:18:55;;;;;;;8.13;3.53;;;;;;;;;;5110957;28;20516;-62
2022/01/29 07:21:21;;;;;;;7.80;3.63;;;;;;;;;;5110771;28;20071;-62
2022/01/29 07:23:47;;;;;;;8.30;3.60;;;;;;;;;;5110075;28;20394;-62
2022/01/29 07:26:13;;;;;;;7.75;3.70;;;;;;;;;;5110799;28;20471;-61
2022/01/29 07:28:39;;;;;;;8.13;3.13;;;;;;;;;;5111208;28;20028;-61
2022/01/29 07:31:05;;;;;;;7.90;3.53;;;;;;;;;;5110793;28;20035;-62
2022/01/29 07:33:31;;;;;;;9.77;3.83;;;;;;;;;;5110616;28;20490;-61
2022/01/29 07:35:57;;;;;;;7.80;3.70;;;;;;;;;;5110782;28;20044;-61
2022/01/29 07:38:23;;;;;;;9.70;3.47;;;;;;;;;;5110746;28;20062;-62
2022/01/29 07:40:49;;;;;;;8.80;3.97;;;;;;;;;;5109519;28;20043;-62
2022/01/29 07:43:15;;;;;;;7.90;2.88;;;;;;;;;;5110643;28;20048;-62
2022/01/29 07:45:41;;;;;;;7.55;3.22;;;;;;;;;;5109216;28;20542;-62
2022/01/29 07:48:07;;;;;;;8.02;3.05;;;;;;;;;;5108830;28;20118;-62
2022/01/29 07:50:33;;;;;;;8.70;3.17;;;;;;;;;;5109054;28;20043;-61
2022/01/29 07:52:59;;;;;;;9.20;3.60;;;;;;;;;;5108569;28;20138;-61
2022/01/29 07:55:26;;;;;;;8.40;3.65;;;;;;;;;;5110041;28;20494;-61
2022/01/29 07:57:52;;;;;;;7.38;3.60;;;;;;;;;;5110281;28;20082;-61
2022/01/29 08:00:18;;;;;;;9.13;3.35;;;;;;;;;;5105420;28;20051;-62
2022/01/29 08:02:44;;;;;;;8.27;2.97;;;;;;;;;;5089580;28;20048;-61
2022/01/29 08:05:10;;;;;;;8.32;3.03;;;;;;;;;;5101089;28;20139;-61
2022/01/29 08:07:38;;;;;;;6.45;2.97;;;;;;;;;;5109886;28;20456;-61
2022/01/29 08:10:04;;;;;;;7.70;2.85;;;;;;;;;;5108561;28;20036;-61
2022/01/29 08:12:30;;;;;;;9.02;3.50;;;;;;;;;;5109507;28;20074;-61
2022/01/29 08:14:56;;;;;;;7.32;2.72;;;;;;;;;;5110144;28;20075;-62
2022/01/29 08:17:22;;;;;;;7.45;2.78;;;;;;;;;;5110387;28;20124;-61
2022/01/29 08:19:49;;;;;;;7.55;2.50;;;;;;;;;;5110283;28;20044;-61
2022/01/29 08:22:16;;;;;;;7.47;3.15;;;;;;;;;;5109343;28;20047;-62
2022/01/29 08:24:42;;;;;;;7.70;2.85;;;;;;;;;;5091315;28;20414;-61
2022/01/29 08:27:08;;;;;;;7.38;2.95;;;;;;;;;;5091440;28;20043;-62
2022/01/29 08:29:34;;;;;;;8.23;2.95;;;;;;;;;;5110135;28;20071;-62
2022/01/29 08:32:00;;;;;;;7.35;2.60;;;;;;;;;;5108396;28;20044;-62
2022/01/29 08:34:27;;;;;;;8.98;3.20;;;;;;;;;;5110259;28;20039;-62
2022/01/29 08:36:53;;;;;;;9.77;3.40;;;;;;;;;;5108032;28;20048;-62
2022/01/29 08:39:19;;;;;;;6.93;2.70;;;;;;;;;;5109973;28;20040;-61
2022/01/29 08:41:45;;;;;;;8.02;2.47;;;;;;;;;;5109828;28;20039;-61
2022/01/29 08:44:11;;;;;;;7.80;2.58;;;;;;;;;;5108808;28;20067;-61
2022/01/29 08:46:37;;;;;;;7.22;2.67;;;;;;;;;;5109283;28;20070;-62
2022/01/29 08:49:03;;;;;;;7.15;2.70;;;;;;;;;;5109933;28;20039;-61
2022/01/29 08:51:29;;;;;;;8.23;2.80;;;;;;;;;;5109385;28;20081;-61
2022/01/29 08:53:55;;;;;;;6.82;2.60;;;;;;;;;;5108269;28;20046;-61
2022/01/29 08:56:22;;;;;;;6.57;2.30;;;;;;;;;;5110112;28;20035;-61
2022/01/29 08:58:48;;;;;;;7.68;2.95;;;;;;;;;;5107888;28;20051;-61
2022/01/29 09:01:14;;;;;;;8.18;2.30;;;;;;;;;;5109610;28;20476;-62
2022/01/29 09:03:40;;;;;;;7.78;2.67;;;;;;;;;;5113745;28;20099;-62
2022/01/29 09:06:06;;;;;;;7.95;2.30;;;;;;;;;;5113566;28;20140;-61
2022/01/29 09:08:33;;;;;;;7.97;2.70;;;;;;;;;;5111978;28;20474;-61
2022/01/29 09:10:59;;;;;;;6.45;2.20;;;;;;;;;;5111855;28;20169;-61
2022/01/29 09:13:25;;;;;;;7.43;2.60;;;;;;;;;;5113631;28;20040;-62
2022/01/29 09:15:51;;;;;;;9.20;2.28;;;;;;;;;;5114088;28;20042;-61
2022/01/29 09:18:17;;;;;;;6.72;2.15;;;;;;;;;;5112246;28;20347;-61
2022/01/29 09:20:43;;;;;;;8.85;2.20;;;;;;;;;;5113840;28;20131;-61
2022/01/29 09:23:09;;;;;;;6.57;2.15;;;;;;;;;;5112921;28;20043;-61
2022/01/29 09:25:38;;;;;;;6.82;2.42;;;;;;;;;;5113858;28;20065;-62
2022/01/29 09:28:05;;;;;;;5.75;2.25;;;;;;;;;;5113463;28;20050;-62
2022/01/29 09:30:31;;;;;;;6.65;2.00;;;;;;;;;;5111358;28;20110;-61
2022/01/29 09:32:57;;;;;;;9.48;2.70;;;;;;;;;;5113009;28;20044;-61
2022/01/29 09:35:23;;;;;;;6.70;2.05;;;;;;;;;;5113437;28;20055;-61
2022/01/29 09:37:49;;;;;;;7.07;2.17;;;;;;;;;;5112516;28;20119;-61
2022/01/29 09:40:16;;;;;;;7.15;2.20;;;;;;;;;;5112780;28;20105;-61
2022/01/29 09:42:45;;;;;;;7.25;2.58;;;;;;;;;;5111302;28;20069;-61
2022/01/29 09:45:14;;;;;;;7.20;2.40;;;;;;;;;;5113159;28;20047;-61
2022/01/29 09:47:43;;;;;;;8.20;2.13;;;;;;;;;;5112648;28;20043;-61
2022/01/29 09:50:10;;;;;;;6.95;1.80;;;;;;;;;;5113225;28;20032;-61
2022/01/29 09:52:36;;;;;;;6.13;1.98;;;;;;;;;;5112555;28;20062;-61
2022/01/29 09:55:02;;;;;;;5.53;2.00;;;;;;;;;;5112687;28;20521;-61
2022/01/29 09:57:28;;;;;;;7.57;2.20;;;;;;;;;;5112659;28;20110;-61
2022/01/29 09:59:54;;;;;;;5.57;1.90;;;;;;;;;;5112997;28;20055;-61
2022/01/29 10:02:20;;;;;;;7.95;2.60;;;;;;;;;;5111908;28;20101;-61
2022/01/29 10:04:49;;;;;;;6.82;2.10;;;;;;;;;;5112760;28;20047;-61
2022/01/29 10:07:18;;;;;;;7.72;2.03;;;;;;;;;;5112105;28;20053;-61
2022/01/29 10:09:44;;;;;;;6.85;2.00;;;;;;;;;;5111990;28;20321;-61
2022/01/29 10:12:17;;;;;;;7.38;2.15;;;;;;;;;;5110349;28;20043;-61
2022/01/29 10:14:50;;;;;;;7.72;1.90;;;;;;;;;;5109504;28;20063;-61
2022/01/29 10:17:43;;;;;;;7.82;2.33;;;;;;;;;;5093065;28;20088;-61
2022/01/29 10:20:10;;;;;;;5.95;2.08;;;;;;;;;;5107117;28;20043;-61
2022/01/29 10:22:36;;;;;;;4.40;1.40;;;;;;;;;;5106730;28;20059;-61
2022/01/29 10:25:16;;;;;;;6.57;1.98;;;;;;;;;;5112434;28;20036;-61
2022/01/29 10:28:02;;;;;;;9.65;2.13;;;;;;;;;;5093522;28;20044;-61
2022/01/29 10:30:30;;;;;;;11.40;2.20;;;;;;;;;;5112421;28;20071;-62
2022/01/29 10:33:05;;;;;;;7.45;2.17;;;;;;;;;;5093588;28;20064;-62
2022/01/29 10:35:43;;;;;;;7.22;1.70;;;;;;;;;;5093298;28;20559;-61
2022/01/29 10:38:09;;;;;;;10.13;2.45;;;;;;;;;;5109142;28;20104;-61
2022/01/29 10:40:35;;;;;;;13.98;2.30;;;;;;;;;;5111877;28;20045;-62
2022/01/29 10:43:09;;;;;;;11.35;2.28;;;;;;;;;;5110641;28;20071;-62
2022/01/29 10:45:35;;;;;;;9.60;2.22;;;;;;;;;;5093192;28;20143;-62
2022/01/29 10:48:03;;;;;;;11.30;2.33;;;;;;;;;;5112026;28;20493;-62
2022/01/29 10:50:29;;;;;;;10.77;2.20;;;;;;;;;;5112210;28;20479;-61
2022/01/29 10:52:56;;;;;;;9.73;1.88;;;;;;;;;;5111421;27;20434;-61
2022/01/29 10:55:22;;;;;;;11.32;2.05;;;;;;;;;;5111967;28;20043;-62
2022/01/29 10:57:48;;;;;;;9.52;1.83;;;;;;;;;;5109753;28;20407;-62
2022/01/29 11:00:18;;;;;;;9.50;1.90;;;;;;;;;;5110904;28;20549;-62
2022/01/29 11:02:45;;;;;;;10.27;2.17;;;;;;;;;;5111464;28;20056;-62
2022/01/29 11:05:12;;;;;;;12.57;1.92;;;;;;;;;;5090322;28;20080;-62
2022/01/29 11:07:38;;;;;;;12.02;2.22;;;;;;;;;;5092745;28;20120;-62
2022/01/29 11:10:05;;;;;;;10.05;2.33;;;;;;;;;;5109129;28;20066;-62
2022/01/29 11:12:32;;;;;;;9.25;1.85;;;;;;;;;;5109683;28;20048;-62
2022/01/29 11:14:59;;;;;;;10.40;1.95;;;;;;;;;;5092698;28;20047;-62
2022/01/29 11:17:26;;;;;;;8.30;1.98;;;;;;;;;;5109416;28;20093;-63
2022/01/29 11:19:52;;;;;;;8.93;1.98;;;;;;;;;;5111558;28;20039;-62
2022/01/29 11:22:20;;;;;;;9.30;1.98;;;;;;;;;;5110483;28;20031;-62
2022/01/29 11:24:46;;;;;;;9.13;1.70;;;;;;;;;;5110427;28;20382;-61
2022/01/29 11:27:22;;;;;;;7.45;1.85;;;;;;;;;;5110895;28;20046;-62
2022/01/29 11:29:56;;;;;;;9.35;2.08;;;;;;;;;;5110767;28;20039;-62
2022/01/29 11:32:22;;;;;;;9.77;2.13;;;;;;;;;;5109223;28;20522;-62
2022/01/29 11:35:06;;;;;;;8.70;1.88;;;;;;;;;;5109386;28;20047;-62
2022/01/29 11:37:51;;;;;;;7.03;1.60;;;;;;;;;;5091558;27;20062;-62
2022/01/29 11:40:18;;;;;;;11.55;1.50;;;;;;;;;;5090616;28;20035;-62
2022/01/29 11:42:54;;;;;;;7.68;1.70;;;;;;;;;;5090437;28;20044;-62
2022/01/29 11:45:41;;;;;;;9.60;1.80;;;;;;;;;;5090235;28;20047;-62
2022/01/29 11:48:08;;;;;;;6.32;1.60;;;;;;;;;;5090638;28;20054;-62
2022/01/29 11:50:34;;;;;;;6.47;1.80;;;;;;;;;;5104344;28;20043;-62
2022/01/29 11:53:01;;;;;;;8.35;1.55;;;;;;;;;;5109591;28;20118;-62
2022/01/29 11:55:37;;;;;;;7.80;1.73;;;;;;;;;;5110296;28;20130;-62
2022/01/29 11:58:18;;;;;;;7.15;1.60;;;;;;;;;;5110456;28;20126;-62
2022/01/29 12:00:45;;;;;;;7.82;1.73;;;;;;;;;;5110163;28;20035;-62
2022/01/29 12:03:44;;;;;;;6.97;1.48;;;;;;;;;;5109740;28;20462;-62
2022/01/29 12:09:07;;;;;;;8.43;1.70;;;;;;;;;;5047211;28;20041;-62
2022/01/29 12:11:38;;;;;;;6.47;1.52;;;;;;;;;;5046150;28;20045;-62
2022/01/29 12:14:14;;;;;;;7.15;1.85;;;;;;;;;;5045205;28;20041;-62
2022/01/29 12:16:55;;;;;;;8.48;1.55;;;;;;;;;;5047052;28;20049;-62
2022/01/29 12:19:33;;;;;;;5.78;1.30;;;;;;;;;;5024321;28;20393;-62
2022/01/29 12:22:00;;;;;;;7.35;1.70;;;;;;;;;;5026425;28;20042;-62
2022/01/29 12:24:26;;;;;;;6.00;1.50;;;;;;;;;;5027117;28;20072;-62
2022/01/29 12:26:58;;;;;;;8.95;1.63;;;;;;;;;;5010812;28;20049;-62
2022/01/29 12:29:24;;;;;;;6.65;1.60;;;;;;;;;;5027260;28;20042;-62
2022/01/29 12:31:50;;;;;;;7.07;1.42;;;;;;;;;;5026711;28;20045;-62
2022/01/29 12:34:16;;;;;;;6.90;1.60;;;;;;;;;;5027202;28;20541;-62
2022/01/29 12:36:42;;;;;;;6.32;1.50;;;;;;;;;;5025518;28;20103;-62
2022/01/29 12:39:10;;;;;;;7.80;1.40;;;;;;;;;;5018446;28;20159;-62
2022/01/29 12:41:39;;;;;;;7.78;1.75;;;;;;;;;;5001311;28;20383;-62
2022/01/29 12:44:08;;;;;;;5.40;1.23;;;;;;;;;;5091725;28;20507;-62
2022/01/29 12:46:34;;;;;;;8.40;1.60;;;;;;;;;;5109157;28;20247;-62
2022/01/29 12:49:07;;;;;;;7.35;1.95;;;;;;;;;;5109097;28;20047;-62
2022/01/29 12:51:33;;;;;;;7.40;1.98;;;;;;;;;;5108702;28;20152;-62
2022/01/29 12:54:00;;;;;;;5.93;1.50;;;;;;;;;;5107394;28;20177;-62
2022/01/29 12:56:30;;;;;;;6.50;1.27;;;;;;;;;;5109664;28;20043;-62
2022/01/29 12:58:56;;;;;;;6.10;2.28;;;;;;;;;;5110140;28;20047;-62
2022/01/29 13:01:22;;;;;;;9.02;1.67;;;;;;;;;;5109775;28;20110;-62
2022/01/29 13:03:48;;;;;;;9.13;1.85;;;;;;;;;;5091279;28;20116;-62
2022/01/29 13:06:15;;;;;;;8.75;1.42;;;;;;;;;;5108076;28;20051;-62
2022/01/29 13:08:41;;;;;;;6.80;1.75;;;;;;;;;;5108932;28;20126;-62
2022/01/29 13:11:20;;;;;;;7.78;1.70;;;;;;;;;;5107809;28;20071;-62
2022/01/29 13:13:46;;;;;;;5.50;1.50;;;;;;;;;;5109882;28;20439;-62
2022/01/29 13:16:12;;;;;;;7.68;1.60;;;;;;;;;;5108278;28;20127;-62
2022/01/29 13:18:38;;;;;;;7.30;1.52;;;;;;;;;;5109910;28;20118;-62
2022/01/29 13:21:04;;;;;;;9.75;1.80;;;;;;;;;;5107683;28;20075;-62
2022/01/29 13:23:34;;;;;;;7.43;1.50;;;;;;;;;;5108498;28;20071;-62
2022/01/29 13:26:00;;;;;;;8.38;1.80;;;;;;;;;;5107885;28;20661;-62
2022/01/29 13:28:30;;;;;;;6.30;1.30;;;;;;;;;;5109585;28;20043;-62
2022/01/29 13:31:03;;;;;;;8.63;1.67;;;;;;;;;;5108282;28;20082;-62
2022/01/29 13:33:33;;;;;;;8.33;1.60;;;;;;;;;;5109414;28;20067;-62
2022/01/29 13:35:59;;;;;;;8.10;1.63;;;;;;;;;;5091326;28;20348;-62
2022/01/29 13:38:28;;;;;;;7.93;1.45;;;;;;;;;;5109466;28;20051;-61
2022/01/29 13:40:55;;;;;;;7.88;1.58;;;;;;;;;;5109677;28;20122;-62
2022/01/29 13:43:40;;;;;;;7.88;1.40;;;;;;;;;;5107181;28;20448;-62
2022/01/29 13:46:07;;;;;;;6.45;1.38;;;;;;;;;;5088692;28;20546;-62
2022/01/29 13:48:50;;;;;;;5.95;1.92;;;;;;;;;;5107024;28;20422;-62
2022/01/29 13:51:33;;;;;;;8.57;1.73;;;;;;;;;;5110891;28;20491;-62
2022/01/29 13:53:59;;;;;;;7.88;1.48;;;;;;;;;;5110158;28;20074;-62
2022/01/29 13:56:27;;;;;;;6.38;1.42;;;;;;;;;;5111249;28;20043;-62
2022/01/29 13:58:59;;;;;;;7.18;1.50;;;;;;;;;;5112693;28;20495;-62
2022/01/29 14:01:44;;;;;;;7.60;1.40;;;;;;;;;;5112214;28;20040;-62
2022/01/29 14:06:54;;;;;;;6.85;1.52;;;;;;;;;;5111451;28;20434;-62
2022/01/29 14:09:26;;;;;;;5.28;1.30;;;;;;;;;;5112594;28;20390;-62
2022/01/29 14:11:55;;;;;;;6.82;1.42;;;;;;;;;;5112334;28;20050;-63
2022/01/29 14:14:22;;;;;;;6.80;1.33;;;;;;;;;;5110999;28;20466;-61
2022/01/29 14:16:48;;;;;;;4.88;1.10;;;;;;;;;;5112088;28;20051;-62
2022/01/29 14:19:18;;;;;;;5.85;1.20;;;;;;;;;;5110765;28;20105;-62
2022/01/29 14:21:44;;;;;;;5.75;1.30;;;;;;;;;;5111648;28;20475;-62
2022/01/29 14:24:10;;;;;;;5.57;1.40;;;;;;;;;;5111223;28;20479;-62
2022/01/29 14:26:37;;;;;;;5.78;1.30;;;;;;;;;;5112212;28;20437;-62
2022/01/29 14:29:03;;;;;;;7.22;1.65;;;;;;;;;;5111954;28;20104;-62
2022/01/29 14:31:29;;;;;;;5.93;1.33;;;;;;;;;;5112166;28;20607;-62
2022/01/29 14:33:55;;;;;;;6.13;1.52;;;;;;;;;;5111991;28;20120;-62
2022/01/29 14:36:21;;;;;;;7.70;2.00;;;;;;;;;;5111785;28;20761;-62
2022/01/29 14:38:47;;;;;;;9.43;1.45;;;;;;;;;;5110951;28;20039;-61
2022/01/29 14:41:13;;;;;;;6.68;1.25;;;;;;;;;;5109687;28;20051;-62
2022/01/29 14:43:39;;;;;;;6.45;1.38;;;;;;;;;;5112485;28;20463;-63
2022/01/29 14:46:05;;;;;;;7.07;1.42;;;;;;;;;;5110373;28;20043;-62
2022/01/29 14:48:32;;;;;;;7.75;1.70;;;;;;;;;;5112267;28;20163;-62
2022/01/29 14:50:58;;;;;;;6.53;1.60;;;;;;;;;;5110531;28;20097;-62
2022/01/29 14:53:24;;;;;;;6.50;1.50;;;;;;;;;;5111178;28;20036;-62
2022/01/29 14:55:50;;;;;;;9.68;1.73;;;;;;;;;;5110525;28;20035;-62
2022/01/29 14:58:16;;;;;;;5.40;1.55;;;;;;;;;;5112053;28;20050;-62
2022/01/29 15:00:42;;;;;;;8.25;1.73;;;;;;;;;;5111365;28;20051;-62
2022/01/29 15:03:09;;;;;;;7.85;1.60;;;;;;;;;;5111190;28;20103;-62